sensor_id;sensor_type;location;lat;lon;timestamp;P1;durP1;ratioP1;P2;durP2;ratioP2
35693;SDS011;21812;55.536;37.664;2023-04-21T00:02:24;7.28;;;3.58;;
35693;SDS011;21812;55.536;37.664;2023-04-21T00:04:51;7.75;;;4.22;;
35693;SDS011;21812;55.536;37.664;2023-04-21T00:07:18;5.22;;;3.38;;
35693;SDS011;21812;55.536;37.664;2023-04-21T00:09:44;8.95;;;3.45;;
35693;SDS011;21812;55.536;37.664;2023-04-21T00:12:10;6.93;;;3.70;;
35693;SDS011;21812;55.536;37.664;2023-04-21T00:14:36;9.85;;;3.83;;
35693;SDS011;21812;55.536;37.664;2023-04-21T00:17:04;5.47;;;3.83;;
35693;SDS011;21812;55.536;37.664;2023-04-21T00:19:30;4.60;;;3.53;;
35693;SDS011;21812;55.536;37.664;2023-04-21T00:21:56;7.32;;;3.40;;
35693;SDS011;21812;55.536;37.664;2023-04-21T00:24:24;6.38;;;2.85;;
35693;SDS011;21812;55.536;37.664;2023-04-21T00:26:50;4.25;;;3.15;;
35693;SDS011;21812;55.536;37.664;2023-04-21T00:29:16;10.65;;;4.70;;
35693;SDS011;21812;55.536;37.664;2023-04-21T00:31:42;8.10;;;3.83;;
35693;SDS011;21812;55.536;37.664;2023-04-21T00:34:07;7.65;;;3.50;;
35693;SDS011;21812;55.536;37.664;2023-04-21T00:36:33;8.13;;;3.40;;
35693;SDS011;21812;55.536;37.664;2023-04-21T00:38:59;5.10;;;3.47;;
35693;SDS011;21812;55.536;37.664;2023-04-21T00:41:24;4.35;;;2.70;;
35693;SDS011;21812;55.536;37.664;2023-04-21T00:44:02;5.50;;;3.75;;
35693;SDS011;21812;55.536;37.664;2023-04-21T00:46:32;3.88;;;3.03;;
35693;SDS011;21812;55.536;37.664;2023-04-21T00:48:59;6.70;;;3.35;;
35693;SDS011;21812;55.536;37.664;2023-04-21T00:51:27;8.13;;;2.85;;
35693;SDS011;21812;55.536;37.664;2023-04-21T00:53:54;6.85;;;3.90;;
35693;SDS011;21812;55.536;37.664;2023-04-21T00:56:21;7.32;;;4.25;;
35693;SDS011;21812;55.536;37.664;2023-04-21T00:58:47;5.93;;;3.40;;
35693;SDS011;21812;55.536;37.664;2023-04-21T01:01:13;7.93;;;3.63;;
35693;SDS011;21812;55.536;37.664;2023-04-21T01:03:43;13.80;;;4.75;;
35693;SDS011;21812;55.536;37.664;2023-04-21T01:06:11;13.25;;;4.28;;
35693;SDS011;21812;55.536;37.664;2023-04-21T01:08:37;6.65;;;3.88;;
35693;SDS011;21812;55.536;37.664;2023-04-21T01:11:09;7.63;;;3.38;;
35693;SDS011;21812;55.536;37.664;2023-04-21T01:13:39;10.20;;;4.65;;
35693;SDS011;21812;55.536;37.664;2023-04-21T01:16:05;6.93;;;4.10;;
35693;SDS011;21812;55.536;37.664;2023-04-21T01:18:32;7.47;;;3.50;;
35693;SDS011;21812;55.536;37.664;2023-04-21T01:20:58;17.38;;;5.32;;
35693;SDS011;21812;55.536;37.664;2023-04-21T01:23:26;10.93;;;4.18;;
35693;SDS011;21812;55.536;37.664;2023-04-21T01:25:52;9.00;;;4.55;;
35693;SDS011;21812;55.536;37.664;2023-04-21T01:28:21;20.33;;;5.25;;
35693;SDS011;21812;55.536;37.664;2023-04-21T01:30:48;8.88;;;4.20;;
35693;SDS011;21812;55.536;37.664;2023-04-21T01:33:13;9.90;;;5.00;;
35693;SDS011;21812;55.536;37.664;2023-04-21T01:35:39;12.85;;;3.88;;
35693;SDS011;21812;55.536;37.664;2023-04-21T01:38:05;9.40;;;4.30;;
35693;SDS011;21812;55.536;37.664;2023-04-21T01:40:31;10.25;;;4.10;;
35693;SDS011;21812;55.536;37.664;2023-04-21T01:42:56;12.65;;;4.07;;
35693;SDS011;21812;55.536;37.664;2023-04-21T01:45:22;7.03;;;3.95;;
35693;SDS011;21812;55.536;37.664;2023-04-21T01:47:48;10.88;;;5.00;;
35693;SDS011;21812;55.536;37.664;2023-04-21T01:50:14;9.52;;;4.28;;
35693;SDS011;21812;55.536;37.664;2023-04-21T01:52:41;14.60;;;4.20;;
35693;SDS011;21812;55.536;37.664;2023-04-21T01:55:07;9.23;;;4.20;;
35693;SDS011;21812;55.536;37.664;2023-04-21T01:57:33;11.15;;;3.50;;
35693;SDS011;21812;55.536;37.664;2023-04-21T01:59:58;11.48;;;3.75;;
35693;SDS011;21812;55.536;37.664;2023-04-21T02:02:25;9.65;;;3.90;;
35693;SDS011;21812;55.536;37.664;2023-04-21T02:04:51;9.52;;;3.63;;
35693;SDS011;21812;55.536;37.664;2023-04-21T02:07:17;9.43;;;4.47;;
35693;SDS011;21812;55.536;37.664;2023-04-21T02:09:43;18.17;;;4.57;;
35693;SDS011;21812;55.536;37.664;2023-04-21T02:12:08;21.80;;;4.68;;
35693;SDS011;21812;55.536;37.664;2023-04-21T02:14:35;28.83;;;7.13;;
35693;SDS011;21812;55.536;37.664;2023-04-21T02:17:02;12.48;;;4.40;;
35693;SDS011;21812;55.536;37.664;2023-04-21T02:19:28;15.02;;;4.38;;
35693;SDS011;21812;55.536;37.664;2023-04-21T02:21:54;7.88;;;4.55;;
35693;SDS011;21812;55.536;37.664;2023-04-21T02:24:20;13.90;;;4.88;;
35693;SDS011;21812;55.536;37.664;2023-04-21T02:26:46;18.55;;;4.18;;
35693;SDS011;21812;55.536;37.664;2023-04-21T02:29:12;11.43;;;4.45;;
35693;SDS011;21812;55.536;37.664;2023-04-21T02:31:38;13.98;;;4.53;;
35693;SDS011;21812;55.536;37.664;2023-04-21T02:34:04;15.77;;;4.57;;
35693;SDS011;21812;55.536;37.664;2023-04-21T02:36:30;18.88;;;5.53;;
35693;SDS011;21812;55.536;37.664;2023-04-21T02:38:56;13.15;;;5.63;;
35693;SDS011;21812;55.536;37.664;2023-04-21T02:41:22;14.30;;;4.47;;
35693;SDS011;21812;55.536;37.664;2023-04-21T02:43:48;16.27;;;5.10;;
35693;SDS011;21812;55.536;37.664;2023-04-21T02:46:14;16.77;;;4.97;;
35693;SDS011;21812;55.536;37.664;2023-04-21T02:48:40;12.20;;;5.32;;
35693;SDS011;21812;55.536;37.664;2023-04-21T02:51:10;18.00;;;4.65;;
35693;SDS011;21812;55.536;37.664;2023-04-21T02:53:40;20.48;;;5.28;;
35693;SDS011;21812;55.536;37.664;2023-04-21T02:56:06;19.35;;;4.60;;
35693;SDS011;21812;55.536;37.664;2023-04-21T02:58:36;16.08;;;6.20;;
35693;SDS011;21812;55.536;37.664;2023-04-21T03:01:02;17.83;;;4.65;;
35693;SDS011;21812;55.536;37.664;2023-04-21T03:03:29;13.35;;;4.50;;
35693;SDS011;21812;55.536;37.664;2023-04-21T03:05:59;15.20;;;6.07;;
35693;SDS011;21812;55.536;37.664;2023-04-21T03:08:26;16.50;;;4.57;;
35693;SDS011;21812;55.536;37.664;2023-04-21T03:10:52;15.23;;;5.10;;
35693;SDS011;21812;55.536;37.664;2023-04-21T03:13:20;27.70;;;6.63;;
35693;SDS011;21812;55.536;37.664;2023-04-21T03:15:50;17.58;;;5.18;;
35693;SDS011;21812;55.536;37.664;2023-04-21T03:18:16;23.65;;;5.63;;
35693;SDS011;21812;55.536;37.664;2023-04-21T03:20:42;24.73;;;5.63;;
35693;SDS011;21812;55.536;37.664;2023-04-21T03:23:08;14.10;;;5.05;;
35693;SDS011;21812;55.536;37.664;2023-04-21T03:25:34;16.52;;;5.88;;
35693;SDS011;21812;55.536;37.664;2023-04-21T03:28:02;21.17;;;5.82;;
35693;SDS011;21812;55.536;37.664;2023-04-21T03:30:28;9.73;;;4.25;;
35693;SDS011;21812;55.536;37.664;2023-04-21T03:32:54;18.10;;;4.82;;
35693;SDS011;21812;55.536;37.664;2023-04-21T03:35:20;14.20;;;4.53;;
35693;SDS011;21812;55.536;37.664;2023-04-21T03:37:46;12.77;;;4.20;;
35693;SDS011;21812;55.536;37.664;2023-04-21T03:40:14;8.30;;;3.45;;
35693;SDS011;21812;55.536;37.664;2023-04-21T03:42:41;13.73;;;4.13;;
35693;SDS011;21812;55.536;37.664;2023-04-21T03:45:07;13.35;;;4.13;;
35693;SDS011;21812;55.536;37.664;2023-04-21T03:47:34;15.43;;;4.38;;
35693;SDS011;21812;55.536;37.664;2023-04-21T03:50:04;10.70;;;3.72;;
35693;SDS011;21812;55.536;37.664;2023-04-21T03:52:31;9.95;;;3.42;;
35693;SDS011;21812;55.536;37.664;2023-04-21T03:54:57;7.50;;;3.88;;
35693;SDS011;21812;55.536;37.664;2023-04-21T03:57:23;8.05;;;2.78;;
35693;SDS011;21812;55.536;37.664;2023-04-21T03:59:49;30.10;;;7.30;;
35693;SDS011;21812;55.536;37.664;2023-04-21T04:02:15;22.30;;;6.22;;
35693;SDS011;21812;55.536;37.664;2023-04-21T04:04:40;22.63;;;5.65;;
35693;SDS011;21812;55.536;37.664;2023-04-21T04:07:06;8.90;;;3.80;;
35693;SDS011;21812;55.536;37.664;2023-04-21T04:09:33;8.63;;;2.97;;
35693;SDS011;21812;55.536;37.664;2023-04-21T04:11:59;12.75;;;4.07;;
35693;SDS011;21812;55.536;37.664;2023-04-21T04:14:27;7.30;;;3.03;;
35693;SDS011;21812;55.536;37.664;2023-04-21T04:16:52;17.02;;;4.47;;
35693;SDS011;21812;55.536;37.664;2023-04-21T04:19:18;7.55;;;3.13;;
35693;SDS011;21812;55.536;37.664;2023-04-21T04:21:44;9.77;;;3.72;;
35693;SDS011;21812;55.536;37.664;2023-04-21T04:24:10;9.15;;;4.07;;
35693;SDS011;21812;55.536;37.664;2023-04-21T04:26:36;12.68;;;3.22;;
35693;SDS011;21812;55.536;37.664;2023-04-21T04:29:03;16.55;;;4.38;;
35693;SDS011;21812;55.536;37.664;2023-04-21T04:31:30;15.40;;;3.97;;
35693;SDS011;21812;55.536;37.664;2023-04-21T04:33:56;8.15;;;2.95;;
35693;SDS011;21812;55.536;37.664;2023-04-21T04:36:23;10.20;;;3.30;;
35693;SDS011;21812;55.536;37.664;2023-04-21T04:38:49;7.40;;;3.53;;
35693;SDS011;21812;55.536;37.664;2023-04-21T04:41:15;8.88;;;4.28;;
35693;SDS011;21812;55.536;37.664;2023-04-21T04:43:41;5.78;;;2.63;;
35693;SDS011;21812;55.536;37.664;2023-04-21T04:46:07;9.05;;;3.35;;
35693;SDS011;21812;55.536;37.664;2023-04-21T04:48:33;10.65;;;3.67;;
35693;SDS011;21812;55.536;37.664;2023-04-21T04:50:59;7.57;;;3.30;;
35693;SDS011;21812;55.536;37.664;2023-04-21T04:53:27;11.77;;;4.13;;
35693;SDS011;21812;55.536;37.664;2023-04-21T04:55:53;16.13;;;5.13;;
35693;SDS011;21812;55.536;37.664;2023-04-21T04:58:18;12.80;;;3.38;;
35693;SDS011;21812;55.536;37.664;2023-04-21T05:00:45;5.57;;;2.83;;
35693;SDS011;21812;55.536;37.664;2023-04-21T05:03:11;19.80;;;4.28;;
35693;SDS011;21812;55.536;37.664;2023-04-21T05:05:36;8.57;;;2.80;;
35693;SDS011;21812;55.536;37.664;2023-04-21T05:08:02;9.35;;;3.00;;
35693;SDS011;21812;55.536;37.664;2023-04-21T05:10:28;8.43;;;3.13;;
35693;SDS011;21812;55.536;37.664;2023-04-21T05:12:54;7.38;;;3.28;;
35693;SDS011;21812;55.536;37.664;2023-04-21T05:15:19;5.57;;;2.40;;
35693;SDS011;21812;55.536;37.664;2023-04-21T05:17:46;24.48;;;3.42;;
35693;SDS011;21812;55.536;37.664;2023-04-21T05:20:12;12.82;;;3.92;;
35693;SDS011;21812;55.536;37.664;2023-04-21T05:22:39;11.18;;;3.10;;
35693;SDS011;21812;55.536;37.664;2023-04-21T05:25:05;10.70;;;3.30;;
35693;SDS011;21812;55.536;37.664;2023-04-21T05:27:31;14.73;;;3.60;;
35693;SDS011;21812;55.536;37.664;2023-04-21T05:29:58;11.55;;;3.80;;
35693;SDS011;21812;55.536;37.664;2023-04-21T05:32:24;7.38;;;3.50;;
35693;SDS011;21812;55.536;37.664;2023-04-21T05:34:50;12.73;;;3.38;;
35693;SDS011;21812;55.536;37.664;2023-04-21T05:37:16;5.90;;;3.13;;
35693;SDS011;21812;55.536;37.664;2023-04-21T05:39:42;6.47;;;3.38;;
35693;SDS011;21812;55.536;37.664;2023-04-21T05:42:08;10.48;;;3.15;;
35693;SDS011;21812;55.536;37.664;2023-04-21T05:44:35;10.70;;;3.33;;
35693;SDS011;21812;55.536;37.664;2023-04-21T05:47:00;8.70;;;3.20;;
35693;SDS011;21812;55.536;37.664;2023-04-21T05:49:26;8.63;;;2.63;;
35693;SDS011;21812;55.536;37.664;2023-04-21T05:51:52;6.97;;;2.80;;
35693;SDS011;21812;55.536;37.664;2023-04-21T05:54:18;7.82;;;2.88;;
35693;SDS011;21812;55.536;37.664;2023-04-21T05:56:43;7.85;;;2.85;;
35693;SDS011;21812;55.536;37.664;2023-04-21T05:59:09;9.93;;;2.40;;
35693;SDS011;21812;55.536;37.664;2023-04-21T06:01:35;10.95;;;3.88;;
35693;SDS011;21812;55.536;37.664;2023-04-21T06:04:01;8.48;;;3.33;;
35693;SDS011;21812;55.536;37.664;2023-04-21T06:06:27;15.23;;;3.10;;
35693;SDS011;21812;55.536;37.664;2023-04-21T06:08:53;9.50;;;3.10;;
35693;SDS011;21812;55.536;37.664;2023-04-21T06:11:18;13.50;;;3.83;;
35693;SDS011;21812;55.536;37.664;2023-04-21T06:13:44;16.70;;;3.25;;
35693;SDS011;21812;55.536;37.664;2023-04-21T06:16:10;10.55;;;3.30;;
35693;SDS011;21812;55.536;37.664;2023-04-21T06:18:36;13.48;;;3.22;;
35693;SDS011;21812;55.536;37.664;2023-04-21T06:21:01;8.70;;;4.28;;
35693;SDS011;21812;55.536;37.664;2023-04-21T06:23:27;24.58;;;5.78;;
35693;SDS011;21812;55.536;37.664;2023-04-21T06:25:59;11.23;;;4.50;;
35693;SDS011;21812;55.536;37.664;2023-04-21T06:28:33;12.68;;;3.65;;
35693;SDS011;21812;55.536;37.664;2023-04-21T06:31:00;20.67;;;4.45;;
35693;SDS011;21812;55.536;37.664;2023-04-21T06:33:27;8.93;;;3.38;;
35693;SDS011;21812;55.536;37.664;2023-04-21T06:35:54;10.65;;;3.33;;
35693;SDS011;21812;55.536;37.664;2023-04-21T06:38:20;9.40;;;3.25;;
35693;SDS011;21812;55.536;37.664;2023-04-21T06:40:46;6.70;;;2.33;;
35693;SDS011;21812;55.536;37.664;2023-04-21T06:43:12;9.57;;;2.95;;
35693;SDS011;21812;55.536;37.664;2023-04-21T06:45:38;9.15;;;2.65;;
35693;SDS011;21812;55.536;37.664;2023-04-21T06:48:03;7.35;;;2.97;;
35693;SDS011;21812;55.536;37.664;2023-04-21T06:50:29;12.63;;;2.92;;
35693;SDS011;21812;55.536;37.664;2023-04-21T06:52:55;7.65;;;2.30;;
35693;SDS011;21812;55.536;37.664;2023-04-21T06:55:21;6.50;;;2.92;;
35693;SDS011;21812;55.536;37.664;2023-04-21T06:57:46;11.23;;;2.97;;
35693;SDS011;21812;55.536;37.664;2023-04-21T07:00:12;7.30;;;2.22;;
35693;SDS011;21812;55.536;37.664;2023-04-21T07:02:38;9.20;;;2.30;;
35693;SDS011;21812;55.536;37.664;2023-04-21T07:05:06;12.48;;;2.97;;
35693;SDS011;21812;55.536;37.664;2023-04-21T07:07:32;5.50;;;2.00;;
35693;SDS011;21812;55.536;37.664;2023-04-21T07:09:58;4.00;;;1.50;;
35693;SDS011;21812;55.536;37.664;2023-04-21T07:12:24;9.05;;;2.13;;
35693;SDS011;21812;55.536;37.664;2023-04-21T07:14:49;7.18;;;1.80;;
35693;SDS011;21812;55.536;37.664;2023-04-21T07:17:15;9.98;;;2.03;;
35693;SDS011;21812;55.536;37.664;2023-04-21T07:19:41;5.55;;;2.20;;
35693;SDS011;21812;55.536;37.664;2023-04-21T07:22:07;7.35;;;2.15;;
35693;SDS011;21812;55.536;37.664;2023-04-21T07:24:32;4.95;;;1.63;;
35693;SDS011;21812;55.536;37.664;2023-04-21T07:27:00;4.40;;;2.10;;
35693;SDS011;21812;55.536;37.664;2023-04-21T07:29:27;4.10;;;1.58;;
35693;SDS011;21812;55.536;37.664;2023-04-21T07:31:53;2.20;;;1.42;;
35693;SDS011;21812;55.536;37.664;2023-04-21T07:34:19;3.00;;;1.83;;
35693;SDS011;21812;55.536;37.664;2023-04-21T07:36:45;8.38;;;1.80;;
35693;SDS011;21812;55.536;37.664;2023-04-21T07:39:11;3.65;;;1.77;;
35693;SDS011;21812;55.536;37.664;2023-04-21T07:41:37;29.65;;;4.60;;
35693;SDS011;21812;55.536;37.664;2023-04-21T07:44:03;6.10;;;1.77;;
35693;SDS011;21812;55.536;37.664;2023-04-21T07:46:29;3.95;;;1.30;;
35693;SDS011;21812;55.536;37.664;2023-04-21T07:48:57;2.50;;;1.50;;
35693;SDS011;21812;55.536;37.664;2023-04-21T07:51:23;7.00;;;2.22;;
35693;SDS011;21812;55.536;37.664;2023-04-21T07:53:52;4.03;;;1.45;;
35693;SDS011;21812;55.536;37.664;2023-04-21T07:56:18;4.43;;;1.60;;
35693;SDS011;21812;55.536;37.664;2023-04-21T07:58:43;8.27;;;2.28;;
35693;SDS011;21812;55.536;37.664;2023-04-21T08:01:09;6.07;;;2.30;;
35693;SDS011;21812;55.536;37.664;2023-04-21T08:03:36;3.55;;;1.05;;
35693;SDS011;21812;55.536;37.664;2023-04-21T08:06:02;3.92;;;2.50;;
35693;SDS011;21812;55.536;37.664;2023-04-21T08:08:28;1.67;;;1.20;;
35693;SDS011;21812;55.536;37.664;2023-04-21T08:10:53;2.78;;;1.73;;
35693;SDS011;21812;55.536;37.664;2023-04-21T08:13:19;2.10;;;1.63;;
35693;SDS011;21812;55.536;37.664;2023-04-21T08:15:50;9.00;;;3.80;;
35693;SDS011;21812;55.536;37.664;2023-04-21T08:18:17;6.82;;;2.85;;
35693;SDS011;21812;55.536;37.664;2023-04-21T08:20:44;6.20;;;1.63;;
35693;SDS011;21812;55.536;37.664;2023-04-21T08:23:13;4.78;;;1.45;;
35693;SDS011;21812;55.536;37.664;2023-04-21T08:25:39;4.20;;;1.40;;
35693;SDS011;21812;55.536;37.664;2023-04-21T08:28:05;6.25;;;2.00;;
35693;SDS011;21812;55.536;37.664;2023-04-21T08:30:31;4.72;;;2.08;;
35693;SDS011;21812;55.536;37.664;2023-04-21T08:32:57;3.17;;;1.90;;
35693;SDS011;21812;55.536;37.664;2023-04-21T08:35:23;3.08;;;1.70;;
35693;SDS011;21812;55.536;37.664;2023-04-21T08:37:49;6.85;;;3.75;;
35693;SDS011;21812;55.536;37.664;2023-04-21T08:40:15;3.53;;;1.45;;
35693;SDS011;21812;55.536;37.664;2023-04-21T08:42:41;2.85;;;1.55;;
35693;SDS011;21812;55.536;37.664;2023-04-21T08:45:07;4.63;;;1.25;;
35693;SDS011;21812;55.536;37.664;2023-04-21T08:47:34;3.58;;;1.45;;
35693;SDS011;21812;55.536;37.664;2023-04-21T08:50:05;2.08;;;1.65;;
35693;SDS011;21812;55.536;37.664;2023-04-21T08:52:36;5.25;;;1.70;;
35693;SDS011;21812;55.536;37.664;2023-04-21T08:55:01;2.85;;;1.60;;
35693;SDS011;21812;55.536;37.664;2023-04-21T08:57:29;9.02;;;2.63;;
35693;SDS011;21812;55.536;37.664;2023-04-21T08:59:55;15.63;;;1.45;;
35693;SDS011;21812;55.536;37.664;2023-04-21T09:02:21;6.32;;;2.03;;
35693;SDS011;21812;55.536;37.664;2023-04-21T09:04:47;3.67;;;1.30;;
35693;SDS011;21812;55.536;37.664;2023-04-21T09:07:34;4.22;;;1.90;;
35693;SDS011;21812;55.536;37.664;2023-04-21T09:10:01;2.90;;;1.30;;
35693;SDS011;21812;55.536;37.664;2023-04-21T09:12:30;2.55;;;1.23;;
35693;SDS011;21812;55.536;37.664;2023-04-21T09:14:56;2.63;;;1.50;;
35693;SDS011;21812;55.536;37.664;2023-04-21T09:17:29;2.67;;;1.70;;
35693;SDS011;21812;55.536;37.664;2023-04-21T09:20:19;4.05;;;1.42;;
35693;SDS011;21812;55.536;37.664;2023-04-21T09:22:47;3.75;;;1.90;;
35693;SDS011;21812;55.536;37.664;2023-04-21T09:25:20;3.38;;;1.42;;
35693;SDS011;21812;55.536;37.664;2023-04-21T09:27:46;7.13;;;2.03;;
35693;SDS011;21812;55.536;37.664;2023-04-21T09:30:12;10.48;;;2.00;;
35693;SDS011;21812;55.536;37.664;2023-04-21T09:32:38;4.03;;;1.90;;
35693;SDS011;21812;55.536;37.664;2023-04-21T09:35:08;11.43;;;1.65;;
35693;SDS011;21812;55.536;37.664;2023-04-21T09:37:35;10.95;;;2.88;;
35693;SDS011;21812;55.536;37.664;2023-04-21T09:40:00;4.18;;;1.48;;
35693;SDS011;21812;55.536;37.664;2023-04-21T09:42:32;6.97;;;1.67;;
35693;SDS011;21812;55.536;37.664;2023-04-21T09:44:58;6.97;;;1.95;;
35693;SDS011;21812;55.536;37.664;2023-04-21T09:47:24;5.97;;;1.70;;
35693;SDS011;21812;55.536;37.664;2023-04-21T09:49:54;4.93;;;2.08;;
35693;SDS011;21812;55.536;37.664;2023-04-21T09:52:22;3.05;;;1.42;;
35693;SDS011;21812;55.536;37.664;2023-04-21T09:54:50;12.23;;;3.08;;
35693;SDS011;21812;55.536;37.664;2023-04-21T09:57:24;8.77;;;2.65;;
35693;SDS011;21812;55.536;37.664;2023-04-21T09:59:55;2.92;;;1.10;;
35693;SDS011;21812;55.536;37.664;2023-04-21T10:02:25;8.48;;;2.25;;
35693;SDS011;21812;55.536;37.664;2023-04-21T10:04:54;3.13;;;1.80;;
35693;SDS011;21812;55.536;37.664;2023-04-21T10:07:20;10.80;;;2.15;;
35693;SDS011;21812;55.536;37.664;2023-04-21T10:09:53;5.07;;;2.13;;
35693;SDS011;21812;55.536;37.664;2023-04-21T10:12:21;6.07;;;1.73;;
35693;SDS011;21812;55.536;37.664;2023-04-21T10:14:55;14.43;;;3.30;;
35693;SDS011;21812;55.536;37.664;2023-04-21T10:17:21;9.73;;;2.53;;
35693;SDS011;21812;55.536;37.664;2023-04-21T10:19:52;4.10;;;1.50;;
35693;SDS011;21812;55.536;37.664;2023-04-21T10:22:31;6.47;;;2.00;;
35693;SDS011;21812;55.536;37.664;2023-04-21T10:24:59;6.18;;;2.55;;
35693;SDS011;21812;55.536;37.664;2023-04-21T10:27:40;2.33;;;1.52;;
35693;SDS011;21812;55.536;37.664;2023-04-21T10:30:19;2.50;;;1.45;;
35693;SDS011;21812;55.536;37.664;2023-04-21T10:33:00;7.38;;;1.73;;
35693;SDS011;21812;55.536;37.664;2023-04-21T10:35:56;4.28;;;1.63;;
35693;SDS011;21812;55.536;37.664;2023-04-21T10:38:40;4.35;;;1.88;;
35693;SDS011;21812;55.536;37.664;2023-04-21T10:41:29;7.68;;;2.10;;
35693;SDS011;21812;55.536;37.664;2023-04-21T10:43:56;3.03;;;1.35;;
35693;SDS011;21812;55.536;37.664;2023-04-21T10:54:21;3.83;;;1.15;;
35693;SDS011;21812;55.536;37.664;2023-04-21T10:56:50;2.00;;;1.30;;
35693;SDS011;21812;55.536;37.664;2023-04-21T10:59:17;4.07;;;1.50;;
35693;SDS011;21812;55.536;37.664;2023-04-21T11:01:44;4.90;;;1.20;;
35693;SDS011;21812;55.536;37.664;2023-04-21T11:04:13;3.13;;;1.55;;
35693;SDS011;21812;55.536;37.664;2023-04-21T11:06:42;6.03;;;1.80;;
35693;SDS011;21812;55.536;37.664;2023-04-21T11:09:08;2.40;;;1.33;;
35693;SDS011;21812;55.536;37.664;2023-04-21T11:11:35;7.35;;;2.10;;
35693;SDS011;21812;55.536;37.664;2023-04-21T11:14:01;2.63;;;1.27;;
35693;SDS011;21812;55.536;37.664;2023-04-21T11:16:27;2.80;;;1.38;;
35693;SDS011;21812;55.536;37.664;2023-04-21T11:18:55;2.00;;;1.30;;
35693;SDS011;21812;55.536;37.664;2023-04-21T11:21:21;27.05;;;4.45;;
35693;SDS011;21812;55.536;37.664;2023-04-21T11:23:49;3.75;;;1.65;;
35693;SDS011;21812;55.536;37.664;2023-04-21T11:26:17;3.33;;;1.60;;
35693;SDS011;21812;55.536;37.664;2023-04-21T11:28:47;4.68;;;1.70;;
35693;SDS011;21812;55.536;37.664;2023-04-21T11:31:14;1.52;;;1.42;;
35693;SDS011;21812;55.536;37.664;2023-04-21T11:33:40;2.92;;;1.20;;
35693;SDS011;21812;55.536;37.664;2023-04-21T11:36:06;5.47;;;1.38;;
35693;SDS011;21812;55.536;37.664;2023-04-21T11:38:38;4.28;;;1.50;;
35693;SDS011;21812;55.536;37.664;2023-04-21T11:41:05;1.92;;;1.42;;
35693;SDS011;21812;55.536;37.664;2023-04-21T11:43:33;1.90;;;1.30;;
35693;SDS011;21812;55.536;37.664;2023-04-21T11:48:56;2.75;;;0.90;;
35693;SDS011;21812;55.536;37.664;2023-04-21T11:51:31;6.10;;;1.23;;
35693;SDS011;21812;55.536;37.664;2023-04-21T11:54:00;3.30;;;1.50;;
35693;SDS011;21812;55.536;37.664;2023-04-21T11:56:27;20.23;;;2.67;;
35693;SDS011;21812;55.536;37.664;2023-04-21T11:58:52;2.50;;;1.30;;
35693;SDS011;21812;55.536;37.664;2023-04-21T12:01:19;3.97;;;1.10;;
35693;SDS011;21812;55.536;37.664;2023-04-21T12:03:49;3.78;;;1.50;;
35693;SDS011;21812;55.536;37.664;2023-04-21T12:06:27;4.18;;;1.42;;
35693;SDS011;21812;55.536;37.664;2023-04-21T12:09:00;1.50;;;1.10;;
35693;SDS011;21812;55.536;37.664;2023-04-21T12:11:28;4.13;;;1.42;;
35693;SDS011;21812;55.536;37.664;2023-04-21T12:13:58;3.45;;;1.40;;
35693;SDS011;21812;55.536;37.664;2023-04-21T12:16:25;7.40;;;1.15;;
35693;SDS011;21812;55.536;37.664;2023-04-21T12:18:52;7.78;;;1.90;;
35693;SDS011;21812;55.536;37.664;2023-04-21T12:21:28;22.45;;;2.80;;
35693;SDS011;21812;55.536;37.664;2023-04-21T12:23:55;8.10;;;1.83;;
35693;SDS011;21812;55.536;37.664;2023-04-21T12:26:21;6.57;;;1.58;;
35693;SDS011;21812;55.536;37.664;2023-04-21T12:28:51;2.47;;;1.48;;
35693;SDS011;21812;55.536;37.664;2023-04-21T12:31:17;1.75;;;1.02;;
35693;SDS011;21812;55.536;37.664;2023-04-21T12:33:43;5.80;;;1.00;;
35693;SDS011;21812;55.536;37.664;2023-04-21T12:36:09;2.42;;;1.25;;
35693;SDS011;21812;55.536;37.664;2023-04-21T12:38:35;3.08;;;1.98;;
35693;SDS011;21812;55.536;37.664;2023-04-21T12:41:01;1.90;;;1.30;;
35693;SDS011;21812;55.536;37.664;2023-04-21T12:43:27;7.43;;;1.40;;
35693;SDS011;21812;55.536;37.664;2023-04-21T12:45:52;2.55;;;1.38;;
35693;SDS011;21812;55.536;37.664;2023-04-21T12:48:18;67.28;;;6.28;;
35693;SDS011;21812;55.536;37.664;2023-04-21T12:50:45;5.57;;;1.55;;
35693;SDS011;21812;55.536;37.664;2023-04-21T12:53:13;4.95;;;1.90;;
35693;SDS011;21812;55.536;37.664;2023-04-21T12:55:39;5.32;;;1.58;;
35693;SDS011;21812;55.536;37.664;2023-04-21T12:58:05;3.92;;;1.55;;
35693;SDS011;21812;55.536;37.664;2023-04-21T13:00:31;5.13;;;1.52;;
35693;SDS011;21812;55.536;37.664;2023-04-21T13:02:57;2.65;;;1.17;;
35693;SDS011;21812;55.536;37.664;2023-04-21T13:05:23;5.82;;;2.45;;
35693;SDS011;21812;55.536;37.664;2023-04-21T13:07:49;5.05;;;1.98;;
35693;SDS011;21812;55.536;37.664;2023-04-21T13:10:14;6.20;;;2.10;;
35693;SDS011;21812;55.536;37.664;2023-04-21T13:12:40;2.75;;;1.45;;
35693;SDS011;21812;55.536;37.664;2023-04-21T13:15:06;5.22;;;1.90;;
35693;SDS011;21812;55.536;37.664;2023-04-21T13:17:33;3.78;;;1.45;;
35693;SDS011;21812;55.536;37.664;2023-04-21T13:19:58;6.57;;;1.83;;
35693;SDS011;21812;55.536;37.664;2023-04-21T13:22:24;6.78;;;1.95;;
35693;SDS011;21812;55.536;37.664;2023-04-21T13:24:50;5.30;;;1.83;;
35693;SDS011;21812;55.536;37.664;2023-04-21T13:27:15;3.10;;;1.70;;
35693;SDS011;21812;55.536;37.664;2023-04-21T13:29:41;2.17;;;1.55;;
35693;SDS011;21812;55.536;37.664;2023-04-21T13:32:07;3.92;;;1.67;;
35693;SDS011;21812;55.536;37.664;2023-04-21T13:34:33;5.35;;;2.20;;
35693;SDS011;21812;55.536;37.664;2023-04-21T13:36:59;5.32;;;2.15;;
35693;SDS011;21812;55.536;37.664;2023-04-21T13:39:25;4.10;;;1.73;;
35693;SDS011;21812;55.536;37.664;2023-04-21T13:41:52;6.35;;;3.22;;
35693;SDS011;21812;55.536;37.664;2023-04-21T13:44:18;11.15;;;6.00;;
35693;SDS011;21812;55.536;37.664;2023-04-21T13:46:45;7.72;;;3.75;;
35693;SDS011;21812;55.536;37.664;2023-04-21T13:49:11;6.00;;;3.30;;
35693;SDS011;21812;55.536;37.664;2023-04-21T13:51:37;7.20;;;1.90;;
35693;SDS011;21812;55.536;37.664;2023-04-21T13:54:03;8.27;;;2.10;;
35693;SDS011;21812;55.536;37.664;2023-04-21T13:56:29;8.27;;;2.15;;
35693;SDS011;21812;55.536;37.664;2023-04-21T13:58:55;4.03;;;1.67;;
35693;SDS011;21812;55.536;37.664;2023-04-21T14:01:22;3.15;;;1.17;;
35693;SDS011;21812;55.536;37.664;2023-04-21T14:03:47;5.07;;;1.17;;
35693;SDS011;21812;55.536;37.664;2023-04-21T14:06:13;3.58;;;1.80;;
35693;SDS011;21812;55.536;37.664;2023-04-21T14:08:39;2.67;;;1.70;;
35693;SDS011;21812;55.536;37.664;2023-04-21T14:11:05;3.03;;;1.60;;
35693;SDS011;21812;55.536;37.664;2023-04-21T14:13:30;8.38;;;1.90;;
35693;SDS011;21812;55.536;37.664;2023-04-21T14:15:56;3.30;;;1.50;;
35693;SDS011;21812;55.536;37.664;2023-04-21T14:18:22;5.47;;;1.40;;
35693;SDS011;21812;55.536;37.664;2023-04-21T14:20:48;6.82;;;1.65;;
35693;SDS011;21812;55.536;37.664;2023-04-21T14:23:14;2.60;;;1.65;;
35693;SDS011;21812;55.536;37.664;2023-04-21T14:25:40;8.93;;;1.88;;
35693;SDS011;21812;55.536;37.664;2023-04-21T14:28:06;5.28;;;1.70;;
35693;SDS011;21812;55.536;37.664;2023-04-21T14:30:36;3.13;;;1.83;;
35693;SDS011;21812;55.536;37.664;2023-04-21T14:33:02;2.15;;;1.67;;
35693;SDS011;21812;55.536;37.664;2023-04-21T14:35:29;4.93;;;1.80;;
35693;SDS011;21812;55.536;37.664;2023-04-21T14:37:56;8.90;;;1.85;;
35693;SDS011;21812;55.536;37.664;2023-04-21T14:40:22;3.55;;;1.50;;
35693;SDS011;21812;55.536;37.664;2023-04-21T14:42:48;10.85;;;2.17;;